createdAt,value
2022-09-04T00:04:14.945Z,100
2022-09-04T00:09:14.906Z,100
2022-09-04T00:14:14.889Z,100
2022-09-04T00:19:14.867Z,100
2022-09-04T00:24:14.838Z,100
2022-09-04T00:29:14.825Z,100
2022-09-04T00:34:14.809Z,100
2022-09-04T00:39:14.792Z,100
2022-09-04T00:44:14.827Z,100
2022-09-04T00:49:14.740Z,100
2022-09-04T00:54:14.716Z,100
2022-09-04T00:59:14.699Z,100
2022-09-04T01:04:14.696Z,100
2022-09-04T01:09:14.657Z,100
2022-09-04T01:14:14.635Z,100
2022-09-04T01:19:14.617Z,100
2022-09-04T01:24:14.640Z,100
2022-09-04T01:29:14.566Z,100
2022-09-04T01:34:14.553Z,100
2022-09-04T01:39:14.525Z,100
2022-09-04T01:44:14.548Z,100
2022-09-04T01:49:14.533Z,100
2022-09-04T01:54:14.495Z,100
2022-09-04T01:59:14.459Z,100
2022-09-04T02:04:14.447Z,100
2022-09-04T02:09:14.414Z,100
2022-09-04T02:14:14.389Z,100
2022-09-04T02:19:14.367Z,100
2022-09-04T02:24:14.339Z,100
2022-09-04T02:29:14.345Z,100
2022-09-04T02:34:14.298Z,100
2022-09-04T02:39:14.293Z,100
2022-09-04T02:44:14.265Z,100
2022-09-04T02:49:14.228Z,100
2022-09-04T02:54:14.243Z,100
2022-09-04T02:59:14.237Z,100
2022-09-04T03:04:14.181Z,100
2022-09-04T03:09:14.192Z,100
2022-09-04T03:14:14.142Z,100
2022-09-04T03:19:14.133Z,100
2022-09-04T03:24:14.091Z,100
2022-09-04T03:29:14.070Z,100
2022-09-04T03:34:14.048Z,100
2022-09-04T03:39:14.025Z,100
2022-09-04T03:44:14.008Z,100
2022-09-04T03:49:13.986Z,100
2022-09-04T03:54:13.986Z,100
2022-09-04T03:59:13.999Z,100
2022-09-04T04:04:13.931Z,100
2022-09-04T04:09:13.941Z,100
2022-09-04T04:14:13.955Z,100
2022-09-04T04:19:13.868Z,100
2022-09-04T04:24:13.837Z,100
2022-09-04T04:29:13.845Z,100
2022-09-04T04:34:13.799Z,100
2022-09-04T04:39:13.812Z,100
2022-09-04T04:44:13.760Z,100
2022-09-04T04:49:13.752Z,100
2022-09-04T04:54:13.715Z,100
2022-09-04T04:59:13.692Z,100
2022-09-04T05:04:13.672Z,100
2022-09-04T05:09:13.649Z,100
2022-09-04T05:14:13.647Z,100
2022-09-04T05:19:13.610Z,100
2022-09-04T05:24:13.604Z,100
2022-09-04T05:29:13.573Z,100
2022-09-04T05:34:13.552Z,100
2022-09-04T05:39:13.543Z,100
2022-09-04T05:44:13.512Z,100
2022-09-04T05:49:13.494Z,100
2022-09-04T05:54:13.463Z,100
2022-09-04T05:59:13.450Z,100
2022-09-04T06:04:13.458Z,100
2022-09-04T06:09:13.399Z,99.5
2022-09-04T06:14:13.399Z,99
2022-09-04T06:19:13.405Z,98
2022-09-04T06:24:13.342Z,97
2022-09-04T06:29:13.350Z,97.5
2022-09-04T06:34:13.320Z,97
2022-09-04T06:39:13.317Z,95
2022-09-04T06:44:13.300Z,95
2022-09-04T06:49:13.233Z,94
2022-09-04T06:54:13.218Z,93.5
2022-09-04T06:59:13.195Z,93.5
2022-09-04T07:04:13.197Z,91.5
2022-09-04T07:09:13.157Z,90.5
2022-09-04T07:14:13.185Z,89
2022-09-04T07:19:13.121Z,90
2022-09-04T07:24:13.146Z,88.5
2022-09-04T07:29:13.070Z,88.5
2022-09-04T07:34:13.060Z,87.5
2022-09-04T07:39:13.022Z,88
2022-09-04T07:44:13.012Z,85
2022-09-04T07:49:12.982Z,85.5
2022-09-04T07:54:12.959Z,84
2022-09-04T07:59:12.931Z,83.5
2022-09-04T08:04:12.948Z,82
2022-09-04T08:09:12.898Z,82.5
2022-09-04T08:14:12.904Z,82.5
2022-09-04T08:19:12.854Z,82.5
2022-09-04T08:24:12.885Z,81
2022-09-04T08:29:12.806Z,78
2022-09-04T08:34:12.805Z,78
2022-09-04T08:39:12.764Z,78
2022-09-04T08:44:12.761Z,73
2022-09-04T08:49:12.726Z,72.5
2022-09-04T08:54:12.739Z,75.5
2022-09-04T08:59:12.682Z,75
2022-09-04T09:04:12.665Z,73.5
2022-09-04T09:09:12.637Z,72
2022-09-04T09:14:12.627Z,70
2022-09-04T09:19:12.606Z,69.5
2022-09-04T09:24:12.580Z,69
2022-09-04T09:29:12.547Z,68.5
2022-09-04T09:34:12.546Z,70
2022-09-04T09:39:12.507Z,67.5
2022-09-04T09:44:12.489Z,65.5
2022-09-04T09:49:12.471Z,65
2022-09-04T09:54:12.493Z,64.5
2022-09-04T09:59:12.425Z,65
2022-09-04T10:04:12.406Z,59.5
2022-09-04T10:09:12.383Z,59.5
2022-09-04T10:14:12.412Z,59
2022-09-04T10:19:12.347Z,57.5
2022-09-04T10:24:12.341Z,57.5
2022-09-04T10:29:12.332Z,55.5
2022-09-04T10:34:12.279Z,57
2022-09-04T10:39:12.251Z,56.5
2022-09-04T10:44:12.241Z,54
2022-09-04T10:49:12.209Z,53.5
2022-09-04T10:54:12.199Z,56
2022-09-04T10:59:12.158Z,57
2022-09-04T11:04:12.188Z,52.5
2022-09-04T11:09:12.137Z,54
2022-09-04T11:14:12.123Z,55
2022-09-04T11:19:12.139Z,51.5
2022-09-04T11:24:12.111Z,53
2022-09-04T11:29:12.028Z,53
2022-09-04T11:34:12.022Z,52.5
2022-09-04T11:39:12.007Z,53
2022-09-04T11:44:11.991Z,45.5
2022-09-04T11:49:11.967Z,47.5
2022-09-04T11:54:11.969Z,49.5
2022-09-04T11:59:11.912Z,47
2022-09-04T12:04:11.928Z,46
2022-09-04T12:09:11.879Z,44.5
2022-09-04T12:14:11.863Z,45.5
2022-09-04T12:19:11.841Z,49.5
2022-09-04T12:24:11.850Z,46
2022-09-04T12:29:11.809Z,49
2022-09-04T12:34:11.778Z,47.5
2022-09-04T12:39:11.761Z,46.5
2022-09-04T12:44:11.733Z,48
2022-09-04T12:49:11.761Z,49.5
2022-09-04T12:54:11.724Z,45.5
2022-09-04T12:59:11.801Z,45
2022-09-04T13:04:11.637Z,47.5
2022-09-04T13:09:11.618Z,49.5
2022-09-04T13:14:11.617Z,47
2022-09-04T13:19:11.613Z,45
2022-09-04T13:24:11.565Z,45
2022-09-04T13:29:11.572Z,45.5
2022-09-04T13:34:11.531Z,46.5
2022-09-04T13:39:11.528Z,44.5
2022-09-04T13:44:11.496Z,47
2022-09-04T13:49:11.480Z,45.5
2022-09-04T13:54:11.459Z,51.5
2022-09-04T13:59:11.422Z,45.5
2022-09-04T14:04:11.403Z,49
2022-09-04T14:09:11.358Z,46.5
2022-09-04T14:14:11.342Z,48.5
2022-09-04T14:19:11.316Z,46
2022-09-04T14:24:11.404Z,48
2022-09-04T14:29:11.346Z,50.5
2022-09-04T14:34:11.248Z,45
2022-09-04T14:39:11.231Z,46.5
2022-09-04T14:44:11.216Z,45.5
2022-09-04T14:49:11.194Z,50
2022-09-04T14:54:11.169Z,47
2022-09-04T14:59:11.145Z,49.5
2022-09-04T15:04:11.130Z,46
2022-09-04T15:09:11.106Z,46.5
2022-09-04T15:14:11.094Z,52
2022-09-04T15:19:11.058Z,47
2022-09-04T15:24:11.049Z,46.5
2022-09-04T15:29:11.014Z,47.5
2022-09-04T15:34:11.000Z,47
2022-09-04T15:39:10.977Z,48
2022-09-04T15:44:10.976Z,49.5
2022-09-04T15:49:10.930Z,48.5
2022-09-04T15:54:10.908Z,46
2022-09-04T15:59:10.890Z,50.5
2022-09-04T16:04:10.869Z,48
2022-09-04T16:09:10.852Z,49
2022-09-04T16:14:10.834Z,47.5
2022-09-04T16:19:10.799Z,50
2022-09-04T16:24:10.782Z,50
2022-09-04T16:29:10.758Z,51
2022-09-04T16:34:10.741Z,50.5
2022-09-04T16:39:10.719Z,49
2022-09-04T16:44:10.721Z,52.5
2022-09-04T16:49:10.672Z,51
2022-09-04T16:54:10.656Z,53
2022-09-04T16:59:10.634Z,51.5
2022-09-04T17:04:10.613Z,52
2022-09-04T17:09:10.590Z,53.5
2022-09-04T17:14:10.568Z,52
2022-09-04T17:19:10.583Z,53
2022-09-04T17:24:10.520Z,52.5
2022-09-04T17:29:10.507Z,52.5
2022-09-04T17:34:10.487Z,53
2022-09-04T17:39:10.457Z,53.5
2022-09-04T17:44:10.434Z,54.5
2022-09-04T17:49:10.422Z,54.5
2022-09-04T17:54:10.399Z,55.5
2022-09-04T18:04:10.357Z,56.5
2022-09-04T18:09:10.351Z,56.5
2022-09-04T18:14:10.317Z,56
2022-09-04T18:19:10.304Z,56
2022-09-04T18:24:10.275Z,58
2022-09-04T18:29:10.281Z,58.5
2022-09-04T18:34:10.234Z,56
2022-09-04T18:39:10.244Z,57.5
2022-09-04T18:44:10.186Z,57.5
2022-09-04T18:54:10.146Z,59.5
2022-09-04T18:59:10.152Z,61
2022-09-04T19:04:10.116Z,63
2022-09-04T19:09:10.141Z,64.5
2022-09-04T19:14:10.060Z,64.5
2022-09-04T19:19:10.074Z,65
2022-09-04T19:24:10.015Z,66
2022-09-04T19:29:10.055Z,66.5
2022-09-04T19:34:10.003Z,67
2022-09-04T19:44:09.925Z,67.5
2022-09-04T19:49:09.965Z,68
2022-09-04T19:54:09.880Z,67.5
2022-09-04T19:59:09.911Z,68
2022-09-04T20:04:09.844Z,67
2022-09-04T20:09:09.867Z,67.5
2022-09-04T20:14:09.806Z,68
2022-09-04T20:19:09.828Z,67.5
2022-09-04T20:24:09.754Z,67.5
2022-09-04T20:29:09.732Z,67.5
2022-09-04T20:34:09.709Z,68
2022-09-04T20:39:09.748Z,68
2022-09-04T20:44:09.680Z,67.5
2022-09-04T20:49:09.667Z,67.5
2022-09-04T20:54:09.632Z,68
2022-09-04T20:59:09.602Z,68
2022-09-04T21:04:09.597Z,68
2022-09-04T21:09:09.566Z,68
2022-09-04T21:14:09.545Z,68.5
2022-09-04T21:19:09.521Z,69.5
2022-09-04T21:24:09.501Z,70.5
2022-09-04T21:29:09.495Z,71.5
2022-09-04T21:34:09.471Z,71
2022-09-04T21:39:09.435Z,71
2022-09-04T21:44:09.416Z,71.5
2022-09-04T21:49:09.399Z,71
2022-09-04T21:54:09.367Z,71
2022-09-04T21:59:09.355Z,71.5
2022-09-04T22:04:09.325Z,72
2022-09-04T22:09:09.310Z,72.5
2022-09-04T22:14:09.300Z,72
2022-09-04T22:19:09.285Z,72.5
2022-09-04T22:24:09.238Z,73
2022-09-04T22:29:09.226Z,73.5
2022-09-04T22:34:09.201Z,73
2022-09-04T22:39:09.174Z,73.5
2022-09-04T22:44:09.154Z,74
2022-09-04T22:49:09.136Z,75
2022-09-04T22:54:09.120Z,75.5
2022-09-04T22:59:09.097Z,75.5
2022-09-04T23:04:09.088Z,75.5
2022-09-04T23:09:09.051Z,75.5
2022-09-04T23:14:09.039Z,76
2022-09-04T23:19:09.027Z,76.5
2022-09-04T23:24:08.995Z,78
2022-09-04T23:29:08.970Z,79.5
2022-09-04T23:34:08.960Z,80
2022-09-04T23:39:08.923Z,78
2022-09-04T23:44:08.928Z,77.5
2022-09-04T23:49:08.880Z,78
2022-09-04T23:54:08.865Z,77.5
2022-09-04T23:59:08.845Z,77
